sensor_id;sensor_type;location;lat;lon;timestamp;temperature;humidity
2929;DHT22;1474;51.460;7.150;2022-08-26T00:00:32;22.40;99.80
2929;DHT22;1474;51.460;7.150;2022-08-26T00:02:59;22.40;99.70
2929;DHT22;1474;51.460;7.150;2022-08-26T00:05:25;22.40;99.70
2929;DHT22;1474;51.460;7.150;2022-08-26T00:07:51;22.30;99.70
2929;DHT22;1474;51.460;7.150;2022-08-26T00:10:18;22.40;99.70
2929;DHT22;1474;51.460;7.150;2022-08-26T00:12:44;22.40;99.60
2929;DHT22;1474;51.460;7.150;2022-08-26T00:15:12;22.30;99.70
2929;DHT22;1474;51.460;7.150;2022-08-26T00:17:39;22.30;99.80
2929;DHT22;1474;51.460;7.150;2022-08-26T00:20:07;22.30;99.80
2929;DHT22;1474;51.460;7.150;2022-08-26T00:22:34;22.30;99.90
2929;DHT22;1474;51.460;7.150;2022-08-26T00:25:00;22.30;99.90
2929;DHT22;1474;51.460;7.150;2022-08-26T00:27:25;22.30;99.90
2929;DHT22;1474;51.460;7.150;2022-08-26T00:29:51;22.30;99.90
2929;DHT22;1474;51.460;7.150;2022-08-26T00:32:17;22.30;99.90
2929;DHT22;1474;51.460;7.150;2022-08-26T00:34:42;22.20;99.90
2929;DHT22;1474;51.460;7.150;2022-08-26T00:37:08;22.20;99.90
2929;DHT22;1474;51.460;7.150;2022-08-26T00:39:34;22.10;99.90
2929;DHT22;1474;51.460;7.150;2022-08-26T00:42:00;22.10;99.90
2929;DHT22;1474;51.460;7.150;2022-08-26T00:44:26;22.10;99.90
2929;DHT22;1474;51.460;7.150;2022-08-26T00:47:00;22.00;99.90
2929;DHT22;1474;51.460;7.150;2022-08-26T00:49:47;21.90;99.90
2929;DHT22;1474;51.460;7.150;2022-08-26T00:52:18;22.00;99.90
2929;DHT22;1474;51.460;7.150;2022-08-26T00:54:50;21.90;99.90
2929;DHT22;1474;51.460;7.150;2022-08-26T00:57:18;21.90;99.90
2929;DHT22;1474;51.460;7.150;2022-08-26T00:59:48;21.90;99.90
2929;DHT22;1474;51.460;7.150;2022-08-26T01:02:16;21.80;99.90
2929;DHT22;1474;51.460;7.150;2022-08-26T01:04:42;21.80;99.90
2929;DHT22;1474;51.460;7.150;2022-08-26T01:07:08;21.80;99.90
2929;DHT22;1474;51.460;7.150;2022-08-26T01:09:35;21.80;99.90
2929;DHT22;1474;51.460;7.150;2022-08-26T01:12:01;21.70;99.90
2929;DHT22;1474;51.460;7.150;2022-08-26T01:14:31;21.80;99.90
2929;DHT22;1474;51.460;7.150;2022-08-26T01:16:57;21.80;99.90
2929;DHT22;1474;51.460;7.150;2022-08-26T01:25:09;21.70;99.90
2929;DHT22;1474;51.460;7.150;2022-08-26T01:27:34;21.70;99.90
2929;DHT22;1474;51.460;7.150;2022-08-26T01:30:02;21.60;99.90
2929;DHT22;1474;51.460;7.150;2022-08-26T01:32:31;21.60;99.90
2929;DHT22;1474;51.460;7.150;2022-08-26T01:34:57;21.60;99.90
2929;DHT22;1474;51.460;7.150;2022-08-26T01:37:28;21.60;99.90
2929;DHT22;1474;51.460;7.150;2022-08-26T01:39:57;21.60;99.90
2929;DHT22;1474;51.460;7.150;2022-08-26T01:42:24;21.60;99.90
2929;DHT22;1474;51.460;7.150;2022-08-26T01:44:53;21.50;99.90
2929;DHT22;1474;51.460;7.150;2022-08-26T01:47:23;21.50;99.90
2929;DHT22;1474;51.460;7.150;2022-08-26T01:49:51;21.50;99.90
2929;DHT22;1474;51.460;7.150;2022-08-26T01:52:22;21.50;99.90
2929;DHT22;1474;51.460;7.150;2022-08-26T01:54:49;21.50;99.90
2929;DHT22;1474;51.460;7.150;2022-08-26T01:57:16;21.50;99.90
2929;DHT22;1474;51.460;7.150;2022-08-26T01:59:42;21.40;99.90
2929;DHT22;1474;51.460;7.150;2022-08-26T02:02:08;21.40;99.90
2929;DHT22;1474;51.460;7.150;2022-08-26T02:04:38;21.40;99.90
2929;DHT22;1474;51.460;7.150;2022-08-26T02:07:07;21.40;99.90
2929;DHT22;1474;51.460;7.150;2022-08-26T02:09:37;21.40;99.90
2929;DHT22;1474;51.460;7.150;2022-08-26T02:12:03;21.40;99.90
2929;DHT22;1474;51.460;7.150;2022-08-26T02:14:33;21.30;99.90
2929;DHT22;1474;51.460;7.150;2022-08-26T02:17:00;21.30;99.90
2929;DHT22;1474;51.460;7.150;2022-08-26T02:19:32;21.30;99.90
2929;DHT22;1474;51.460;7.150;2022-08-26T02:22:05;21.20;99.90
2929;DHT22;1474;51.460;7.150;2022-08-26T02:24:47;21.20;99.90
2929;DHT22;1474;51.460;7.150;2022-08-26T02:27:15;21.10;99.90
2929;DHT22;1474;51.460;7.150;2022-08-26T02:29:45;21.10;99.90
2929;DHT22;1474;51.460;7.150;2022-08-26T02:32:14;21.10;99.90
2929;DHT22;1474;51.460;7.150;2022-08-26T02:34:39;21.10;99.90
2929;DHT22;1474;51.460;7.150;2022-08-26T02:37:08;21.10;99.90
2929;DHT22;1474;51.460;7.150;2022-08-26T02:39:36;21.10;99.90
2929;DHT22;1474;51.460;7.150;2022-08-26T02:42:02;21.10;99.90
2929;DHT22;1474;51.460;7.150;2022-08-26T02:44:29;21.00;99.90
2929;DHT22;1474;51.460;7.150;2022-08-26T02:46:54;20.90;99.90
2929;DHT22;1474;51.460;7.150;2022-08-26T02:49:21;20.90;99.90
2929;DHT22;1474;51.460;7.150;2022-08-26T02:51:48;20.90;99.90
2929;DHT22;1474;51.460;7.150;2022-08-26T02:54:15;20.90;99.90
2929;DHT22;1474;51.460;7.150;2022-08-26T02:56:41;20.80;99.90
2929;DHT22;1474;51.460;7.150;2022-08-26T02:59:08;20.70;99.90
2929;DHT22;1474;51.460;7.150;2022-08-26T03:01:37;20.60;99.90
2929;DHT22;1474;51.460;7.150;2022-08-26T03:04:06;20.70;99.90
2929;DHT22;1474;51.460;7.150;2022-08-26T03:06:34;20.70;99.90
2929;DHT22;1474;51.460;7.150;2022-08-26T03:09:00;20.70;99.90
2929;DHT22;1474;51.460;7.150;2022-08-26T03:11:26;20.70;99.90
2929;DHT22;1474;51.460;7.150;2022-08-26T03:13:52;20.60;99.90
2929;DHT22;1474;51.460;7.150;2022-08-26T03:16:18;20.60;99.90
2929;DHT22;1474;51.460;7.150;2022-08-26T03:18:44;20.60;99.90
2929;DHT22;1474;51.460;7.150;2022-08-26T03:21:13;20.60;99.90
2929;DHT22;1474;51.460;7.150;2022-08-26T03:23:39;20.50;99.90
2929;DHT22;1474;51.460;7.150;2022-08-26T03:26:06;20.50;99.90
2929;DHT22;1474;51.460;7.150;2022-08-26T03:28:32;20.50;99.90
2929;DHT22;1474;51.460;7.150;2022-08-26T03:30:57;20.40;99.90
2929;DHT22;1474;51.460;7.150;2022-08-26T03:33:24;20.50;99.90
2929;DHT22;1474;51.460;7.150;2022-08-26T03:35:53;20.50;99.90
2929;DHT22;1474;51.460;7.150;2022-08-26T03:38:21;20.50;99.90
2929;DHT22;1474;51.460;7.150;2022-08-26T03:40:50;20.50;99.90
2929;DHT22;1474;51.460;7.150;2022-08-26T03:43:17;20.40;99.90
2929;DHT22;1474;51.460;7.150;2022-08-26T03:45:43;20.30;99.90
2929;DHT22;1474;51.460;7.150;2022-08-26T03:48:09;20.40;99.90
2929;DHT22;1474;51.460;7.150;2022-08-26T03:50:36;20.40;99.90
2929;DHT22;1474;51.460;7.150;2022-08-26T03:53:03;20.30;99.90
2929;DHT22;1474;51.460;7.150;2022-08-26T03:55:31;20.30;99.90
2929;DHT22;1474;51.460;7.150;2022-08-26T03:57:57;20.20;99.90
2929;DHT22;1474;51.460;7.150;2022-08-26T04:00:23;20.20;99.90
2929;DHT22;1474;51.460;7.150;2022-08-26T04:02:49;20.20;99.90
2929;DHT22;1474;51.460;7.150;2022-08-26T04:05:16;20.20;99.90
2929;DHT22;1474;51.460;7.150;2022-08-26T04:07:42;20.20;99.90
2929;DHT22;1474;51.460;7.150;2022-08-26T04:10:14;20.10;99.90
2929;DHT22;1474;51.460;7.150;2022-08-26T04:12:42;20.10;99.90
2929;DHT22;1474;51.460;7.150;2022-08-26T04:15:11;20.10;99.90
2929;DHT22;1474;51.460;7.150;2022-08-26T04:17:37;20.00;99.90
2929;DHT22;1474;51.460;7.150;2022-08-26T04:20:04;20.00;99.90
2929;DHT22;1474;51.460;7.150;2022-08-26T04:22:31;20.00;99.90
2929;DHT22;1474;51.460;7.150;2022-08-26T04:24:56;20.00;99.90
2929;DHT22;1474;51.460;7.150;2022-08-26T04:27:22;20.00;99.90
2929;DHT22;1474;51.460;7.150;2022-08-26T04:29:48;20.00;99.90
2929;DHT22;1474;51.460;7.150;2022-08-26T04:32:14;20.10;99.90
2929;DHT22;1474;51.460;7.150;2022-08-26T04:34:40;20.10;99.90
2929;DHT22;1474;51.460;7.150;2022-08-26T04:37:06;20.10;99.90
2929;DHT22;1474;51.460;7.150;2022-08-26T04:39:32;20.10;99.90
2929;DHT22;1474;51.460;7.150;2022-08-26T04:41:58;20.10;99.90
2929;DHT22;1474;51.460;7.150;2022-08-26T04:44:26;20.20;99.90
2929;DHT22;1474;51.460;7.150;2022-08-26T04:46:53;20.20;99.90
2929;DHT22;1474;51.460;7.150;2022-08-26T04:49:19;20.10;99.90
2929;DHT22;1474;51.460;7.150;2022-08-26T04:51:45;20.00;99.90
2929;DHT22;1474;51.460;7.150;2022-08-26T04:54:11;20.00;99.90
2929;DHT22;1474;51.460;7.150;2022-08-26T04:56:41;20.00;99.90
2929;DHT22;1474;51.460;7.150;2022-08-26T04:59:10;20.10;99.90
2929;DHT22;1474;51.460;7.150;2022-08-26T05:01:45;20.10;99.90
2929;DHT22;1474;51.460;7.150;2022-08-26T05:04:11;20.20;99.90
2929;DHT22;1474;51.460;7.150;2022-08-26T05:06:37;20.20;99.90
2929;DHT22;1474;51.460;7.150;2022-08-26T05:09:03;20.20;99.90
2929;DHT22;1474;51.460;7.150;2022-08-26T05:11:29;20.20;99.90
2929;DHT22;1474;51.460;7.150;2022-08-26T05:13:55;20.20;99.90
2929;DHT22;1474;51.460;7.150;2022-08-26T05:16:20;20.30;99.90
2929;DHT22;1474;51.460;7.150;2022-08-26T05:18:46;20.30;99.90
2929;DHT22;1474;51.460;7.150;2022-08-26T05:21:18;20.30;99.90
2929;DHT22;1474;51.460;7.150;2022-08-26T05:23:44;20.30;99.90
2929;DHT22;1474;51.460;7.150;2022-08-26T05:26:10;20.40;99.90
2929;DHT22;1474;51.460;7.150;2022-08-26T05:28:36;20.40;99.90
2929;DHT22;1474;51.460;7.150;2022-08-26T05:31:14;20.50;99.90
2929;DHT22;1474;51.460;7.150;2022-08-26T05:33:40;20.50;99.90
2929;DHT22;1474;51.460;7.150;2022-08-26T05:36:11;20.50;99.90
2929;DHT22;1474;51.460;7.150;2022-08-26T05:38:37;20.60;99.90
2929;DHT22;1474;51.460;7.150;2022-08-26T05:41:03;20.60;99.90
2929;DHT22;1474;51.460;7.150;2022-08-26T05:43:29;20.60;99.90
2929;DHT22;1474;51.460;7.150;2022-08-26T05:45:55;20.60;99.90
2929;DHT22;1474;51.460;7.150;2022-08-26T05:48:22;20.70;99.90
2929;DHT22;1474;51.460;7.150;2022-08-26T05:50:50;20.70;99.90
2929;DHT22;1474;51.460;7.150;2022-08-26T05:53:18;20.80;99.90
2929;DHT22;1474;51.460;7.150;2022-08-26T05:55:50;20.80;99.90
2929;DHT22;1474;51.460;7.150;2022-08-26T05:58:17;20.90;99.90
2929;DHT22;1474;51.460;7.150;2022-08-26T06:00:45;20.90;99.90
2929;DHT22;1474;51.460;7.150;2022-08-26T06:03:13;20.80;99.90
2929;DHT22;1474;51.460;7.150;2022-08-26T06:05:40;20.70;99.90
2929;DHT22;1474;51.460;7.150;2022-08-26T06:08:06;20.70;99.90
2929;DHT22;1474;51.460;7.150;2022-08-26T06:11:03;20.80;99.90
2929;DHT22;1474;51.460;7.150;2022-08-26T06:13:28;20.80;99.90
2929;DHT22;1474;51.460;7.150;2022-08-26T06:15:55;20.90;99.90
2929;DHT22;1474;51.460;7.150;2022-08-26T06:18:23;20.90;99.90
2929;DHT22;1474;51.460;7.150;2022-08-26T06:20:52;20.90;99.90
2929;DHT22;1474;51.460;7.150;2022-08-26T06:23:19;20.90;99.90
2929;DHT22;1474;51.460;7.150;2022-08-26T06:26:04;20.80;99.90
2929;DHT22;1474;51.460;7.150;2022-08-26T06:28:31;20.80;99.90
2929;DHT22;1474;51.460;7.150;2022-08-26T06:30:56;20.90;99.90
2929;DHT22;1474;51.460;7.150;2022-08-26T06:33:23;21.00;99.90
2929;DHT22;1474;51.460;7.150;2022-08-26T06:35:49;21.00;99.90
2929;DHT22;1474;51.460;7.150;2022-08-26T06:38:16;21.00;99.90
2929;DHT22;1474;51.460;7.150;2022-08-26T06:40:44;21.00;99.90
2929;DHT22;1474;51.460;7.150;2022-08-26T06:43:11;20.90;99.90
2929;DHT22;1474;51.460;7.150;2022-08-26T06:45:38;20.90;99.90
2929;DHT22;1474;51.460;7.150;2022-08-26T06:48:05;20.90;99.90
2929;DHT22;1474;51.460;7.150;2022-08-26T06:50:32;20.90;99.90
2929;DHT22;1474;51.460;7.150;2022-08-26T06:52:58;21.00;99.90
2929;DHT22;1474;51.460;7.150;2022-08-26T06:55:23;21.00;99.90
2929;DHT22;1474;51.460;7.150;2022-08-26T06:57:49;21.00;99.90
2929;DHT22;1474;51.460;7.150;2022-08-26T07:00:15;21.10;99.90
2929;DHT22;1474;51.460;7.150;2022-08-26T07:02:42;21.20;99.90
2929;DHT22;1474;51.460;7.150;2022-08-26T07:05:08;21.30;99.90
2929;DHT22;1474;51.460;7.150;2022-08-26T07:07:34;21.30;99.90
2929;DHT22;1474;51.460;7.150;2022-08-26T07:10:00;21.40;99.90
2929;DHT22;1474;51.460;7.150;2022-08-26T07:12:26;21.40;99.90
2929;DHT22;1474;51.460;7.150;2022-08-26T07:14:52;21.40;99.90
2929;DHT22;1474;51.460;7.150;2022-08-26T07:17:18;21.50;99.90
2929;DHT22;1474;51.460;7.150;2022-08-26T07:19:45;21.50;99.90
2929;DHT22;1474;51.460;7.150;2022-08-26T07:22:11;21.50;99.90
2929;DHT22;1474;51.460;7.150;2022-08-26T07:24:38;21.60;99.90
2929;DHT22;1474;51.460;7.150;2022-08-26T07:27:10;21.70;99.90
2929;DHT22;1474;51.460;7.150;2022-08-26T07:29:37;21.80;99.90
2929;DHT22;1474;51.460;7.150;2022-08-26T07:32:04;21.90;99.90
2929;DHT22;1474;51.460;7.150;2022-08-26T07:34:30;21.90;99.90
2929;DHT22;1474;51.460;7.150;2022-08-26T07:36:56;22.00;99.90
2929;DHT22;1474;51.460;7.150;2022-08-26T07:39:23;22.00;99.90
2929;DHT22;1474;51.460;7.150;2022-08-26T07:41:50;22.10;99.90
2929;DHT22;1474;51.460;7.150;2022-08-26T07:44:16;22.10;99.90
2929;DHT22;1474;51.460;7.150;2022-08-26T07:46:42;22.20;99.90
2929;DHT22;1474;51.460;7.150;2022-08-26T07:49:08;22.20;99.90
2929;DHT22;1474;51.460;7.150;2022-08-26T07:51:34;22.20;99.90
2929;DHT22;1474;51.460;7.150;2022-08-26T07:54:01;22.10;99.90
2929;DHT22;1474;51.460;7.150;2022-08-26T07:56:27;22.10;99.90
2929;DHT22;1474;51.460;7.150;2022-08-26T07:58:53;22.10;99.90
2929;DHT22;1474;51.460;7.150;2022-08-26T08:01:20;22.10;99.90
2929;DHT22;1474;51.460;7.150;2022-08-26T08:03:48;22.20;99.90
2929;DHT22;1474;51.460;7.150;2022-08-26T08:06:16;22.30;99.90
2929;DHT22;1474;51.460;7.150;2022-08-26T08:08:42;22.20;99.90
2929;DHT22;1474;51.460;7.150;2022-08-26T08:11:09;22.20;99.90
2929;DHT22;1474;51.460;7.150;2022-08-26T08:13:36;22.20;99.90
2929;DHT22;1474;51.460;7.150;2022-08-26T08:16:03;22.30;99.90
2929;DHT22;1474;51.460;7.150;2022-08-26T08:18:29;22.30;99.90
2929;DHT22;1474;51.460;7.150;2022-08-26T08:20:55;22.30;99.90
2929;DHT22;1474;51.460;7.150;2022-08-26T08:23:21;22.30;99.90
2929;DHT22;1474;51.460;7.150;2022-08-26T08:25:47;22.40;99.90
2929;DHT22;1474;51.460;7.150;2022-08-26T08:28:14;22.40;99.90
2929;DHT22;1474;51.460;7.150;2022-08-26T08:30:40;22.40;99.90
2929;DHT22;1474;51.460;7.150;2022-08-26T08:33:06;22.40;99.90
2929;DHT22;1474;51.460;7.150;2022-08-26T08:35:32;22.40;99.90
2929;DHT22;1474;51.460;7.150;2022-08-26T08:37:59;22.30;99.90
2929;DHT22;1474;51.460;7.150;2022-08-26T08:40:26;22.30;99.90
2929;DHT22;1474;51.460;7.150;2022-08-26T08:43:05;22.30;99.90
2929;DHT22;1474;51.460;7.150;2022-08-26T08:45:38;22.30;99.90
2929;DHT22;1474;51.460;7.150;2022-08-26T08:48:22;22.20;99.90
2929;DHT22;1474;51.460;7.150;2022-08-26T08:50:53;22.30;99.90
2929;DHT22;1474;51.460;7.150;2022-08-26T08:53:43;22.30;99.90
2929;DHT22;1474;51.460;7.150;2022-08-26T08:56:31;22.40;99.90
2929;DHT22;1474;51.460;7.150;2022-08-26T08:59:21;22.40;99.90
2929;DHT22;1474;51.460;7.150;2022-08-26T09:01:58;22.40;99.90
2929;DHT22;1474;51.460;7.150;2022-08-26T09:04:56;22.40;99.90
2929;DHT22;1474;51.460;7.150;2022-08-26T09:07:25;22.50;99.90
2929;DHT22;1474;51.460;7.150;2022-08-26T09:10:00;22.40;99.90
2929;DHT22;1474;51.460;7.150;2022-08-26T09:12:29;22.50;99.90
2929;DHT22;1474;51.460;7.150;2022-08-26T09:15:03;22.40;99.90
2929;DHT22;1474;51.460;7.150;2022-08-26T09:23:18;22.20;99.90
2929;DHT22;1474;51.460;7.150;2022-08-26T09:25:59;22.20;99.90
2929;DHT22;1474;51.460;7.150;2022-08-26T09:28:27;22.20;99.90
2929;DHT22;1474;51.460;7.150;2022-08-26T09:33:30;22.40;99.90
2929;DHT22;1474;51.460;7.150;2022-08-26T09:36:18;22.50;99.90
2929;DHT22;1474;51.460;7.150;2022-08-26T09:38:51;22.70;99.90
2929;DHT22;1474;51.460;7.150;2022-08-26T09:41:22;22.80;99.90
2929;DHT22;1474;51.460;7.150;2022-08-26T09:44:16;22.80;99.90
2929;DHT22;1474;51.460;7.150;2022-08-26T09:54:36;22.80;99.90
2929;DHT22;1474;51.460;7.150;2022-08-26T09:57:16;22.80;99.90
2929;DHT22;1474;51.460;7.150;2022-08-26T09:59:42;22.90;99.90
2929;DHT22;1474;51.460;7.150;2022-08-26T10:02:20;23.00;99.90
2929;DHT22;1474;51.460;7.150;2022-08-26T10:04:55;23.20;99.90
2929;DHT22;1474;51.460;7.150;2022-08-26T10:07:47;23.20;99.90
2929;DHT22;1474;51.460;7.150;2022-08-26T10:10:26;23.30;99.90
2929;DHT22;1474;51.460;7.150;2022-08-26T10:13:07;23.40;99.90
2929;DHT22;1474;51.460;7.150;2022-08-26T10:18:35;23.50;99.90
2929;DHT22;1474;51.460;7.150;2022-08-26T10:23:31;23.80;99.90
2929;DHT22;1474;51.460;7.150;2022-08-26T10:26:29;23.60;99.90
2929;DHT22;1474;51.460;7.150;2022-08-26T10:29:22;23.50;99.90
2929;DHT22;1474;51.460;7.150;2022-08-26T10:32:03;23.40;99.90
2929;DHT22;1474;51.460;7.150;2022-08-26T10:34:33;23.50;99.90
2929;DHT22;1474;51.460;7.150;2022-08-26T10:36:59;23.50;99.90
2929;DHT22;1474;51.460;7.150;2022-08-26T10:42:03;23.60;99.90
2929;DHT22;1474;51.460;7.150;2022-08-26T10:44:35;23.50;99.90
2929;DHT22;1474;51.460;7.150;2022-08-26T10:47:18;23.50;99.90
2929;DHT22;1474;51.460;7.150;2022-08-26T10:49:46;23.50;99.90
2929;DHT22;1474;51.460;7.150;2022-08-26T10:52:27;23.40;99.90
2929;DHT22;1474;51.460;7.150;2022-08-26T10:55:04;23.30;99.90
2929;DHT22;1474;51.460;7.150;2022-08-26T11:03:02;23.40;99.90
2929;DHT22;1474;51.460;7.150;2022-08-26T11:05:30;23.50;99.90
2929;DHT22;1474;51.460;7.150;2022-08-26T11:13:14;23.50;99.90
2929;DHT22;1474;51.460;7.150;2022-08-26T11:18:09;23.50;99.90
2929;DHT22;1474;51.460;7.150;2022-08-26T11:20:42;23.70;99.90
2929;DHT22;1474;51.460;7.150;2022-08-26T11:28:47;23.80;99.90
2929;DHT22;1474;51.460;7.150;2022-08-26T11:34:03;23.90;99.90
2929;DHT22;1474;51.460;7.150;2022-08-26T11:36:39;23.90;99.90
2929;DHT22;1474;51.460;7.150;2022-08-26T11:41:45;23.90;99.90
2929;DHT22;1474;51.460;7.150;2022-08-26T11:44:16;24.00;99.90
2929;DHT22;1474;51.460;7.150;2022-08-26T11:46:51;24.00;99.90
2929;DHT22;1474;51.460;7.150;2022-08-26T11:49:17;24.00;99.90
2929;DHT22;1474;51.460;7.150;2022-08-26T11:51:43;24.00;99.90
2929;DHT22;1474;51.460;7.150;2022-08-26T11:54:11;23.90;99.90
2929;DHT22;1474;51.460;7.150;2022-08-26T11:56:39;24.00;99.90
2929;DHT22;1474;51.460;7.150;2022-08-26T11:59:08;24.00;99.90
2929;DHT22;1474;51.460;7.150;2022-08-26T12:01:39;24.10;99.90
2929;DHT22;1474;51.460;7.150;2022-08-26T12:04:09;24.00;99.90
2929;DHT22;1474;51.460;7.150;2022-08-26T12:06:38;23.90;99.90
2929;DHT22;1474;51.460;7.150;2022-08-26T12:09:10;23.90;99.90
2929;DHT22;1474;51.460;7.150;2022-08-26T12:11:37;23.90;99.90
2929;DHT22;1474;51.460;7.150;2022-08-26T12:14:05;24.00;99.90
2929;DHT22;1474;51.460;7.150;2022-08-26T12:16:37;24.00;99.90
2929;DHT22;1474;51.460;7.150;2022-08-26T12:19:27;24.10;99.90
2929;DHT22;1474;51.460;7.150;2022-08-26T12:21:57;24.10;99.90
2929;DHT22;1474;51.460;7.150;2022-08-26T12:24:25;24.00;99.90
2929;DHT22;1474;51.460;7.150;2022-08-26T12:27:05;24.00;99.90
2929;DHT22;1474;51.460;7.150;2022-08-26T12:29:33;24.00;99.90
2929;DHT22;1474;51.460;7.150;2022-08-26T12:32:14;24.00;99.90
2929;DHT22;1474;51.460;7.150;2022-08-26T12:34:42;24.00;99.90
2929;DHT22;1474;51.460;7.150;2022-08-26T12:37:10;24.00;99.90
2929;DHT22;1474;51.460;7.150;2022-08-26T12:39:39;24.00;99.90
2929;DHT22;1474;51.460;7.150;2022-08-26T12:42:38;24.10;99.90
2929;DHT22;1474;51.460;7.150;2022-08-26T12:45:06;24.10;99.90
2929;DHT22;1474;51.460;7.150;2022-08-26T12:47:35;24.10;99.90
2929;DHT22;1474;51.460;7.150;2022-08-26T12:50:16;24.10;99.90
2929;DHT22;1474;51.460;7.150;2022-08-26T12:53:05;24.00;99.90
2929;DHT22;1474;51.460;7.150;2022-08-26T12:55:43;24.00;99.90
2929;DHT22;1474;51.460;7.150;2022-08-26T12:58:17;24.10;99.90
2929;DHT22;1474;51.460;7.150;2022-08-26T13:00:50;24.20;99.90
2929;DHT22;1474;51.460;7.150;2022-08-26T13:08:58;24.00;99.90
2929;DHT22;1474;51.460;7.150;2022-08-26T13:14:16;24.00;99.90
2929;DHT22;1474;51.460;7.150;2022-08-26T13:16:43;24.10;99.90
2929;DHT22;1474;51.460;7.150;2022-08-26T13:19:13;24.10;99.90
2929;DHT22;1474;51.460;7.150;2022-08-26T13:21:59;24.10;99.90
2929;DHT22;1474;51.460;7.150;2022-08-26T13:24:27;23.90;99.90
2929;DHT22;1474;51.460;7.150;2022-08-26T13:26:55;23.90;99.90
2929;DHT22;1474;51.460;7.150;2022-08-26T13:29:21;23.90;99.90
2929;DHT22;1474;51.460;7.150;2022-08-26T13:31:47;24.00;99.90
2929;DHT22;1474;51.460;7.150;2022-08-26T13:34:15;23.90;99.90
2929;DHT22;1474;51.460;7.150;2022-08-26T13:36:43;23.90;99.90
2929;DHT22;1474;51.460;7.150;2022-08-26T13:39:10;23.80;99.90
2929;DHT22;1474;51.460;7.150;2022-08-26T13:41:36;23.80;99.90
2929;DHT22;1474;51.460;7.150;2022-08-26T13:44:02;23.90;99.90
2929;DHT22;1474;51.460;7.150;2022-08-26T13:46:28;24.00;99.90
2929;DHT22;1474;51.460;7.150;2022-08-26T13:48:57;23.90;99.90
2929;DHT22;1474;51.460;7.150;2022-08-26T13:51:24;24.00;99.90
2929;DHT22;1474;51.460;7.150;2022-08-26T13:53:50;24.10;99.90
2929;DHT22;1474;51.460;7.150;2022-08-26T13:56:16;24.10;99.90
2929;DHT22;1474;51.460;7.150;2022-08-26T13:58:43;24.10;99.90
2929;DHT22;1474;51.460;7.150;2022-08-26T14:01:09;24.10;99.90
2929;DHT22;1474;51.460;7.150;2022-08-26T14:03:35;24.10;99.90
2929;DHT22;1474;51.460;7.150;2022-08-26T14:06:01;24.20;99.90
2929;DHT22;1474;51.460;7.150;2022-08-26T14:08:27;24.10;99.90
2929;DHT22;1474;51.460;7.150;2022-08-26T14:10:52;24.10;99.90
2929;DHT22;1474;51.460;7.150;2022-08-26T14:13:18;24.10;99.90
2929;DHT22;1474;51.460;7.150;2022-08-26T14:15:45;24.10;99.90
2929;DHT22;1474;51.460;7.150;2022-08-26T14:18:12;24.10;99.90
2929;DHT22;1474;51.460;7.150;2022-08-26T14:20:48;24.10;99.90
2929;DHT22;1474;51.460;7.150;2022-08-26T14:23:15;24.10;99.90
2929;DHT22;1474;51.460;7.150;2022-08-26T14:25:42;24.10;99.90
2929;DHT22;1474;51.460;7.150;2022-08-26T14:28:08;24.10;99.90
2929;DHT22;1474;51.460;7.150;2022-08-26T14:30:34;24.00;99.90
2929;DHT22;1474;51.460;7.150;2022-08-26T14:33:01;24.00;99.90
2929;DHT22;1474;51.460;7.150;2022-08-26T14:35:28;24.00;99.90
2929;DHT22;1474;51.460;7.150;2022-08-26T14:37:55;24.00;99.90
2929;DHT22;1474;51.460;7.150;2022-08-26T14:40:22;24.00;99.90
2929;DHT22;1474;51.460;7.150;2022-08-26T14:42:51;23.90;99.90
2929;DHT22;1474;51.460;7.150;2022-08-26T14:45:21;23.80;99.90
2929;DHT22;1474;51.460;7.150;2022-08-26T14:47:48;23.60;99.90
2929;DHT22;1474;51.460;7.150;2022-08-26T14:50:17;23.60;99.90
2929;DHT22;1474;51.460;7.150;2022-08-26T14:52:43;23.70;99.90
2929;DHT22;1474;51.460;7.150;2022-08-26T14:55:31;23.60;99.90
2929;DHT22;1474;51.460;7.150;2022-08-26T14:57:57;23.60;99.90
2929;DHT22;1474;51.460;7.150;2022-08-26T15:00:23;23.60;99.90
2929;DHT22;1474;51.460;7.150;2022-08-26T15:02:48;23.50;99.90
2929;DHT22;1474;51.460;7.150;2022-08-26T15:05:14;23.40;99.90
2929;DHT22;1474;51.460;7.150;2022-08-26T15:07:40;23.50;99.90
2929;DHT22;1474;51.460;7.150;2022-08-26T15:10:07;23.50;99.90
2929;DHT22;1474;51.460;7.150;2022-08-26T15:12:33;23.70;99.90
2929;DHT22;1474;51.460;7.150;2022-08-26T15:14:59;23.70;99.90
2929;DHT22;1474;51.460;7.150;2022-08-26T15:17:25;23.70;99.90
2929;DHT22;1474;51.460;7.150;2022-08-26T15:19:51;23.60;99.90
2929;DHT22;1474;51.460;7.150;2022-08-26T15:22:17;23.70;99.90
2929;DHT22;1474;51.460;7.150;2022-08-26T15:24:43;23.60;99.90
2929;DHT22;1474;51.460;7.150;2022-08-26T15:27:08;23.60;99.90
2929;DHT22;1474;51.460;7.150;2022-08-26T15:29:34;23.60;99.90
2929;DHT22;1474;51.460;7.150;2022-08-26T15:32:04;23.60;99.90
2929;DHT22;1474;51.460;7.150;2022-08-26T15:34:29;23.70;99.90
2929;DHT22;1474;51.460;7.150;2022-08-26T15:36:56;23.60;99.90
2929;DHT22;1474;51.460;7.150;2022-08-26T15:39:22;23.60;99.90
2929;DHT22;1474;51.460;7.150;2022-08-26T15:41:48;23.50;99.90
2929;DHT22;1474;51.460;7.150;2022-08-26T15:44:14;23.40;99.90
2929;DHT22;1474;51.460;7.150;2022-08-26T15:46:41;23.40;99.90
2929;DHT22;1474;51.460;7.150;2022-08-26T15:49:07;23.30;99.90
2929;DHT22;1474;51.460;7.150;2022-08-26T15:51:39;23.30;99.90
2929;DHT22;1474;51.460;7.150;2022-08-26T15:54:06;23.20;99.90
2929;DHT22;1474;51.460;7.150;2022-08-26T15:56:35;23.20;99.90
2929;DHT22;1474;51.460;7.150;2022-08-26T15:59:02;23.10;99.90
2929;DHT22;1474;51.460;7.150;2022-08-26T16:01:28;23.00;99.90
2929;DHT22;1474;51.460;7.150;2022-08-26T16:03:54;23.00;99.90
2929;DHT22;1474;51.460;7.150;2022-08-26T16:06:23;23.00;99.90
2929;DHT22;1474;51.460;7.150;2022-08-26T16:08:50;23.00;99.90
2929;DHT22;1474;51.460;7.150;2022-08-26T16:11:16;23.00;99.90
2929;DHT22;1474;51.460;7.150;2022-08-26T16:13:44;23.00;99.90
2929;DHT22;1474;51.460;7.150;2022-08-26T16:16:10;22.90;99.90
2929;DHT22;1474;51.460;7.150;2022-08-26T16:18:36;23.00;99.90
2929;DHT22;1474;51.460;7.150;2022-08-26T16:21:03;22.90;99.90
2929;DHT22;1474;51.460;7.150;2022-08-26T16:23:29;22.80;99.90
2929;DHT22;1474;51.460;7.150;2022-08-26T16:25:55;22.90;99.90
2929;DHT22;1474;51.460;7.150;2022-08-26T16:28:21;22.90;99.90
2929;DHT22;1474;51.460;7.150;2022-08-26T16:30:47;22.90;99.90
2929;DHT22;1474;51.460;7.150;2022-08-26T16:33:13;22.90;99.90
2929;DHT22;1474;51.460;7.150;2022-08-26T16:35:40;22.80;99.90
2929;DHT22;1474;51.460;7.150;2022-08-26T16:38:06;22.80;99.90
2929;DHT22;1474;51.460;7.150;2022-08-26T16:40:32;22.80;99.90
2929;DHT22;1474;51.460;7.150;2022-08-26T16:42:58;22.80;99.90
2929;DHT22;1474;51.460;7.150;2022-08-26T16:45:25;22.80;99.90
2929;DHT22;1474;51.460;7.150;2022-08-26T16:47:51;22.70;99.90
2929;DHT22;1474;51.460;7.150;2022-08-26T16:50:18;22.70;99.90
2929;DHT22;1474;51.460;7.150;2022-08-26T16:52:44;22.70;99.90
2929;DHT22;1474;51.460;7.150;2022-08-26T16:55:13;22.60;99.90
2929;DHT22;1474;51.460;7.150;2022-08-26T16:57:40;22.60;99.90
2929;DHT22;1474;51.460;7.150;2022-08-26T17:00:12;22.60;99.90
2929;DHT22;1474;51.460;7.150;2022-08-26T17:02:39;22.70;99.90
2929;DHT22;1474;51.460;7.150;2022-08-26T17:05:06;22.60;99.90
2929;DHT22;1474;51.460;7.150;2022-08-26T17:07:33;22.70;99.90
2929;DHT22;1474;51.460;7.150;2022-08-26T17:10:03;22.70;99.90
2929;DHT22;1474;51.460;7.150;2022-08-26T17:12:29;22.80;99.90
2929;DHT22;1474;51.460;7.150;2022-08-26T17:14:55;22.70;99.90